Terminal Aerodrome Forecast
Issued by NWS

Home | Current Version | Previous Version | Text Only | Print | Product List | Glossary On
Versions: 1 2 3 4 5 6 7 8 9 10 11 12 13 14 15 16
000
FTUS45 KRIW 250523
TAFPNA
TAF
KPNA 250523Z 2506/2606 VRB05KT P6SM BKN070
     FM251100 VRB04KT P6SM VCSH SCT035 BKN045
     FM251500 30006KT 5SM -SN SCT015 BKN025
     FM252000 31011KT P6SM VCSH SCT020 BKN035
     FM260400 30010KT P6SM SCT080
      AMD LTD TO CLD VIS AND WIND=

USA.gov is the U.S. government's official web portal to all federal, state and local government web resources and services.